createdAt,value
2023-02-19T00:01:49.777Z,59.31
2023-02-19T00:04:19.242Z,58.85
2023-02-19T00:06:48.302Z,58.12
2023-02-19T00:09:18.005Z,58.68
2023-02-19T00:11:47.824Z,59.00
2023-02-19T00:14:18.007Z,59.17
2023-02-19T00:16:47.530Z,59.12
2023-02-19T00:19:17.811Z,58.43
2023-02-19T00:21:45.692Z,58.63
2023-02-19T00:24:15.226Z,58.66
2023-02-19T00:26:43.812Z,58.40
2023-02-19T00:29:15.602Z,57.92
2023-02-19T00:31:44.371Z,58.06
2023-02-19T00:34:14.565Z,58.18
2023-02-19T00:36:44.252Z,58.18
2023-02-19T00:39:15.708Z,58.85
2023-02-19T00:41:44.291Z,58.92
2023-02-19T00:44:14.157Z,59.32
2023-02-19T00:46:44.038Z,59.50
2023-02-19T00:49:17.630Z,60.84
2023-02-19T00:51:45.475Z,60.35
2023-02-19T00:54:14.503Z,60.83
2023-02-19T00:56:42.405Z,61.71
2023-02-19T00:59:10.750Z,61.82
2023-02-19T01:01:39.342Z,62.94
2023-02-19T01:04:07.639Z,63.11
2023-02-19T01:06:37.750Z,63.51
2023-02-19T01:09:07.080Z,63.33
2023-02-19T01:11:35.754Z,64.30
2023-02-19T01:14:05.078Z,64.24
2023-02-19T01:16:33.274Z,63.76
2023-02-19T01:19:01.192Z,63.89
2023-02-19T01:21:30.532Z,64.06
2023-02-19T01:24:00.105Z,64.23
2023-02-19T01:26:30.207Z,64.07
2023-02-19T01:28:58.206Z,62.99
2023-02-19T01:31:26.877Z,63.76
2023-02-19T01:33:57.171Z,63.45
2023-02-19T01:36:25.716Z,63.88
2023-02-19T01:38:54.209Z,64.28
2023-02-19T01:41:26.220Z,63.92
2023-02-19T01:44:00.752Z,63.74
2023-02-19T01:46:29.928Z,63.44
2023-02-19T01:49:00.494Z,63.86
2023-02-19T01:51:29.046Z,64.58
2023-02-19T01:54:00.105Z,63.97
2023-02-19T01:56:31.235Z,63.68
2023-02-19T01:58:59.850Z,64.11
2023-02-19T02:01:27.727Z,64.58
2023-02-19T02:03:55.686Z,64.60
2023-02-19T02:06:25.557Z,64.90
2023-02-19T02:09:13.363Z,65.21
2023-02-19T02:11:47.454Z,64.97
2023-02-19T02:14:18.683Z,66.09
2023-02-19T02:16:56.546Z,65.87
2023-02-19T02:19:38.491Z,66.09
2023-02-19T02:22:17.107Z,66.71
2023-02-19T02:25:09.209Z,67.25
2023-02-19T02:27:54.495Z,66.71
2023-02-19T02:30:34.055Z,67.35
2023-02-19T02:33:10.971Z,66.94
2023-02-19T02:35:45.476Z,67.46
2023-02-19T02:38:15.561Z,66.93
2023-02-19T02:40:46.013Z,67.44
2023-02-19T02:43:15.595Z,67.43
2023-02-19T02:45:45.044Z,66.51
2023-02-19T02:48:27.917Z,67.20
2023-02-19T02:51:00.407Z,66.59
2023-02-19T02:53:57.177Z,66.27
2023-02-19T02:56:26.631Z,66.35
2023-02-19T02:58:57.506Z,66.46
2023-02-19T03:01:50.309Z,67.08
2023-02-19T03:04:25.322Z,67.35
2023-02-19T03:06:54.525Z,66.69
2023-02-19T03:09:30.240Z,66.63
2023-02-19T03:12:21.463Z,66.59
2023-02-19T03:15:13.133Z,67.27
2023-02-19T03:18:03.831Z,66.77
2023-02-19T03:20:35.468Z,67.29
2023-02-19T03:23:03.980Z,67.25
2023-02-19T03:25:50.914Z,66.45
2023-02-19T03:28:43.590Z,66.71
2023-02-19T03:31:16.274Z,66.52
2023-02-19T03:33:48.328Z,67.06
2023-02-19T03:36:18.896Z,67.79
2023-02-19T03:38:53.268Z,67.16
2023-02-19T03:41:31.083Z,67.33
2023-02-19T03:44:10.959Z,67.78
2023-02-19T03:46:46.960Z,67.86
2023-02-19T03:49:25.171Z,67.52
2023-02-19T03:52:02.802Z,67.92
2023-02-19T03:54:39.142Z,67.89
2023-02-19T03:57:14.180Z,68.34
2023-02-19T03:59:49.748Z,68.25
2023-02-19T04:02:23.617Z,68.48
2023-02-19T04:04:59.798Z,68.22
2023-02-19T04:07:33.738Z,67.94
2023-02-19T04:10:02.212Z,69.05
2023-02-19T04:12:31.617Z,68.84
2023-02-19T04:15:04.945Z,68.72
2023-02-19T04:17:36.776Z,68.08
2023-02-19T04:20:10.330Z,68.59
2023-02-19T04:22:40.033Z,69.29
2023-02-19T04:25:09.438Z,69.18
2023-02-19T04:27:38.702Z,68.58
2023-02-19T04:30:09.031Z,69.31
2023-02-19T04:32:36.928Z,69.33
2023-02-19T04:35:07.004Z,69.05
2023-02-19T04:37:34.844Z,69.44
2023-02-19T04:40:02.768Z,68.95
2023-02-19T04:42:30.803Z,68.46
2023-02-19T04:44:58.604Z,68.28
2023-02-19T04:47:26.448Z,69.17
2023-02-19T04:49:54.323Z,68.29
2023-02-19T04:52:23.575Z,68.25
2023-02-19T04:54:51.473Z,68.00
2023-02-19T04:57:19.285Z,68.82
2023-02-19T04:59:47.477Z,68.20
2023-02-19T05:02:15.377Z,68.27
2023-02-19T05:04:43.268Z,67.94
2023-02-19T05:07:11.271Z,67.82
2023-02-19T05:09:40.450Z,67.90
2023-02-19T05:12:08.418Z,67.26
2023-02-19T05:14:36.322Z,68.33
2023-02-19T05:17:04.174Z,68.31
2023-02-19T05:19:32.209Z,67.95
2023-02-19T05:22:00.063Z,68.38
2023-02-19T05:24:29.929Z,68.14
2023-02-19T05:26:59.231Z,67.86
2023-02-19T05:29:27.188Z,68.13
2023-02-19T05:31:55.119Z,68.82
2023-02-19T05:34:23.072Z,69.52
2023-02-19T05:36:52.603Z,70.17
2023-02-19T05:39:20.438Z,69.71
2023-02-19T05:41:48.311Z,69.56
2023-02-19T05:44:17.595Z,70.27
2023-02-19T05:46:45.470Z,70.78
2023-02-19T05:49:13.374Z,70.79
2023-02-19T05:51:41.311Z,70.81
2023-02-19T05:54:10.157Z,71.27
2023-02-19T05:56:42.340Z,70.88
2023-02-19T05:59:21.363Z,71.46
2023-02-19T06:01:50.040Z,71.05
2023-02-19T06:04:19.975Z,70.81
2023-02-19T06:06:48.828Z,69.96
2023-02-19T06:09:16.936Z,69.69
2023-02-19T06:11:44.840Z,69.36
2023-02-19T06:14:14.284Z,69.27
2023-02-19T06:16:43.649Z,69.70
2023-02-19T06:19:11.779Z,69.10
2023-02-19T06:21:39.874Z,69.19
2023-02-19T06:24:09.492Z,69.46
2023-02-19T06:26:37.692Z,69.25
2023-02-19T06:29:05.617Z,69.78
2023-02-19T06:31:33.582Z,69.86
2023-02-19T06:34:05.013Z,70.16
2023-02-19T06:36:32.889Z,69.82
2023-02-19T06:39:00.870Z,70.46
2023-02-19T06:41:28.728Z,70.20
2023-02-19T06:43:58.293Z,70.02
2023-02-19T06:46:26.680Z,70.45
2023-02-19T06:48:54.551Z,70.22
2023-02-19T06:51:26.348Z,69.56
2023-02-19T06:53:54.285Z,70.07
2023-02-19T06:56:25.147Z,70.46
2023-02-19T06:58:53.308Z,70.00
2023-02-19T07:01:21.810Z,69.68
2023-02-19T07:03:50.882Z,70.81
2023-02-19T07:06:18.846Z,70.41
2023-02-19T07:08:48.117Z,71.16
2023-02-19T07:11:16.388Z,71.20
2023-02-19T07:13:44.271Z,71.32
2023-02-19T07:16:13.378Z,70.79
2023-02-19T07:18:42.720Z,70.96
2023-02-19T07:21:12.817Z,70.43
2023-02-19T07:23:41.556Z,70.94
2023-02-19T07:26:12.336Z,71.04
2023-02-19T07:28:41.726Z,71.03
2023-02-19T07:31:10.414Z,71.30
2023-02-19T07:33:38.670Z,71.27
2023-02-19T07:36:09.058Z,71.77
2023-02-19T07:38:36.990Z,72.06
2023-02-19T07:41:06.107Z,72.24
2023-02-19T07:43:37.363Z,71.99
2023-02-19T07:46:06.740Z,72.25
2023-02-19T07:48:35.466Z,73.20
2023-02-19T07:51:05.051Z,73.62
2023-02-19T07:53:35.060Z,72.92
2023-02-19T07:56:04.365Z,72.84
2023-02-19T07:58:33.262Z,72.45
2023-02-19T08:01:10.644Z,73.25
2023-02-19T08:03:37.987Z,73.32
2023-02-19T08:06:06.712Z,72.92
2023-02-19T08:08:35.019Z,74.75
2023-02-19T08:11:21.754Z,76.44
2023-02-19T08:13:52.363Z,77.30
2023-02-19T08:16:36.776Z,77.61
2023-02-19T08:19:05.392Z,78.48
2023-02-19T08:21:34.519Z,79.93
2023-02-19T08:24:02.421Z,81.02
2023-02-19T08:26:30.434Z,82.05
2023-02-19T08:28:58.973Z,82.80
2023-02-19T08:31:28.574Z,83.50
2023-02-19T08:33:56.493Z,84.35
2023-02-19T08:36:24.433Z,84.49
2023-02-19T08:38:52.303Z,84.89
2023-02-19T08:41:21.429Z,85.02
2023-02-19T08:43:49.261Z,85.67
2023-02-19T08:46:17.290Z,85.39
2023-02-19T08:48:46.543Z,85.96
2023-02-19T08:51:14.752Z,86.38
2023-02-19T08:53:42.839Z,85.16
2023-02-19T08:56:13.266Z,85.46
2023-02-19T08:58:41.502Z,85.97
2023-02-19T09:01:11.709Z,85.53
2023-02-19T09:03:39.879Z,86.04
2023-02-19T09:06:13.509Z,85.90
2023-02-19T09:08:41.400Z,86.24
2023-02-19T09:11:09.468Z,87.17
2023-02-19T09:13:37.585Z,86.93
2023-02-19T09:16:06.114Z,86.42
2023-02-19T09:18:34.292Z,86.71
2023-02-19T09:21:04.607Z,87.16
2023-02-19T09:23:35.941Z,86.83
2023-02-19T09:26:07.611Z,86.96
2023-02-19T09:28:35.793Z,87.35
2023-02-19T09:31:06.197Z,87.40
2023-02-19T09:33:34.778Z,87.19
2023-02-19T09:36:03.380Z,85.86
2023-02-19T09:38:31.843Z,84.92
2023-02-19T09:41:08.872Z,85.38
2023-02-19T09:43:38.311Z,84.84
2023-02-19T09:46:14.014Z,85.36
2023-02-19T09:48:41.928Z,85.20
2023-02-19T09:51:12.201Z,85.44
2023-02-19T09:53:43.604Z,84.67
2023-02-19T09:56:12.945Z,85.58
2023-02-19T09:58:48.469Z,84.40
2023-02-19T10:01:16.957Z,84.88
2023-02-19T10:03:47.303Z,85.00
2023-02-19T10:06:21.831Z,85.07
2023-02-19T10:08:51.966Z,83.59
2023-02-19T10:11:21.487Z,83.25
2023-02-19T10:13:52.138Z,83.23
2023-02-19T10:16:25.233Z,81.97
2023-02-19T10:18:54.114Z,81.20
2023-02-19T10:21:27.234Z,80.42
2023-02-19T10:23:57.972Z,79.72
2023-02-19T10:26:27.542Z,78.71
2023-02-19T10:28:55.714Z,78.37
2023-02-19T10:31:25.949Z,76.65
2023-02-19T10:33:55.883Z,76.18
2023-02-19T10:36:31.426Z,75.46
2023-02-19T10:39:01.596Z,74.51
2023-02-19T10:41:31.786Z,74.55
2023-02-19T10:44:06.488Z,74.08
2023-02-19T10:46:37.317Z,74.10
2023-02-19T10:49:07.176Z,74.33
2023-02-19T10:51:37.438Z,74.30
2023-02-19T10:54:07.854Z,73.79
2023-02-19T10:56:38.726Z,74.06
2023-02-19T10:59:23.978Z,74.56
2023-02-19T11:01:56.087Z,73.97
2023-02-19T11:04:25.513Z,73.87
2023-02-19T11:06:53.591Z,73.81
2023-02-19T11:09:27.989Z,74.07
2023-02-19T11:11:59.354Z,74.35
2023-02-19T11:14:29.248Z,73.81
2023-02-19T11:16:59.219Z,73.64
2023-02-19T11:19:36.457Z,73.25
2023-02-19T11:22:20.457Z,73.06
2023-02-19T11:24:51.797Z,72.17
2023-02-19T11:27:23.793Z,72.73
2023-02-19T11:29:52.287Z,70.86
2023-02-19T11:32:29.670Z,70.24
2023-02-19T11:35:18.418Z,69.23
2023-02-19T11:38:00.543Z,68.10
2023-02-19T11:40:40.043Z,67.98
2023-02-19T11:43:21.185Z,68.05
2023-02-19T11:45:58.982Z,68.57
2023-02-19T11:48:47.102Z,69.23
2023-02-19T11:51:28.230Z,69.04
2023-02-19T11:54:05.691Z,68.87
2023-02-19T11:56:37.277Z,68.99
2023-02-19T11:59:13.890Z,69.10
2023-02-19T12:01:57.999Z,68.69
2023-02-19T12:04:54.362Z,68.74
2023-02-19T12:07:37.352Z,69.10
2023-02-19T12:10:14.197Z,69.53
2023-02-19T12:12:53.253Z,69.50
2023-02-19T12:15:57.333Z,70.21
2023-02-19T12:18:55.928Z,70.00
2023-02-19T12:21:37.250Z,69.14
2023-02-19T12:24:21.637Z,66.65
2023-02-19T12:27:06.664Z,67.21
2023-02-19T12:29:50.140Z,66.43
2023-02-19T12:32:40.096Z,66.25
2023-02-19T12:35:33.577Z,66.01
2023-02-19T12:38:13.426Z,65.46
2023-02-19T12:40:53.956Z,64.82
2023-02-19T12:43:23.239Z,64.21
2023-02-19T12:45:55.609Z,64.30
2023-02-19T12:48:30.625Z,64.55
2023-02-19T12:51:06.385Z,64.83
2023-02-19T12:53:42.846Z,64.77
2023-02-19T12:56:15.837Z,65.46
2023-02-19T12:58:47.793Z,64.87
2023-02-19T13:01:20.638Z,65.27
2023-02-19T13:03:54.458Z,65.14
2023-02-19T13:06:36.527Z,65.12
2023-02-19T13:09:13.822Z,65.75
2023-02-19T13:11:47.143Z,65.44
2023-02-19T13:14:22.569Z,65.83
2023-02-19T13:17:01.198Z,65.49
2023-02-19T13:19:29.961Z,65.60
2023-02-19T13:22:26.005Z,66.61
2023-02-19T13:24:55.701Z,66.73
2023-02-19T13:27:41.770Z,66.65
2023-02-19T13:30:33.617Z,67.09
2023-02-19T13:33:12.715Z,66.50
2023-02-19T13:36:08.214Z,65.85
2023-02-19T13:38:40.652Z,66.58
2023-02-19T13:41:20.219Z,66.58
2023-02-19T13:43:55.344Z,65.75
2023-02-19T13:46:23.326Z,65.25
2023-02-19T13:49:28.883Z,65.58
2023-02-19T13:51:57.813Z,64.88
2023-02-19T13:54:30.074Z,65.37
2023-02-19T13:57:31.279Z,64.89
2023-02-19T14:00:00.069Z,64.25
2023-02-19T14:02:32.682Z,63.60
2023-02-19T14:05:03.507Z,64.00
2023-02-19T14:07:52.711Z,62.37
2023-02-19T14:11:02.490Z,62.31
2023-02-19T14:14:06.647Z,62.86
2023-02-19T14:16:51.329Z,63.53
2023-02-19T14:19:51.349Z,63.62
2023-02-19T14:23:10.848Z,64.10
2023-02-19T14:25:53.398Z,64.32
2023-02-19T14:28:30.094Z,65.46
2023-02-19T14:31:01.991Z,66.31
2023-02-19T14:33:32.491Z,65.99
2023-02-19T14:36:06.766Z,66.42
2023-02-19T14:38:39.485Z,66.26
2023-02-19T14:41:07.793Z,67.66
2023-02-19T14:43:37.463Z,67.01
2023-02-19T14:46:13.960Z,67.67
2023-02-19T14:48:46.861Z,68.41
2023-02-19T14:51:24.200Z,68.63
2023-02-19T14:53:53.966Z,68.43
2023-02-19T14:56:26.319Z,68.25
2023-02-19T14:59:21.908Z,68.53
2023-02-19T15:01:57.106Z,69.79
2023-02-19T15:04:27.080Z,69.17
2023-02-19T15:06:57.137Z,69.37
2023-02-19T15:09:32.028Z,67.62
2023-02-19T15:12:02.662Z,68.18
2023-02-19T15:14:32.300Z,67.44
2023-02-19T15:17:04.495Z,66.53
2023-02-19T15:19:35.052Z,66.52
2023-02-19T15:22:03.624Z,66.63
2023-02-19T15:24:31.730Z,66.70
2023-02-19T15:26:59.679Z,67.36
2023-02-19T15:29:30.019Z,65.80
2023-02-19T15:31:59.712Z,66.58
2023-02-19T15:34:31.074Z,67.06
2023-02-19T15:37:02.289Z,67.86
2023-02-19T15:39:35.186Z,67.48
2023-02-19T15:42:06.116Z,68.27
2023-02-19T15:44:45.548Z,68.03
2023-02-19T15:47:22.186Z,68.24
2023-02-19T15:49:58.347Z,68.66
2023-02-19T15:52:34.473Z,69.08
2023-02-19T15:55:12.862Z,68.99
2023-02-19T15:57:46.032Z,68.89
2023-02-19T16:00:19.233Z,69.03
2023-02-19T16:02:48.666Z,69.97
2023-02-19T16:05:26.846Z,69.51
2023-02-19T16:08:09.154Z,70.58
2023-02-19T16:10:37.131Z,70.09
2023-02-19T16:13:07.952Z,70.39
2023-02-19T16:15:36.841Z,70.45
2023-02-19T16:18:05.764Z,70.59
2023-02-19T16:20:36.944Z,70.61
2023-02-19T16:23:10.901Z,70.55
2023-02-19T16:25:42.342Z,71.07
2023-02-19T16:28:14.188Z,70.28
2023-02-19T16:30:42.922Z,69.17
2023-02-19T16:33:36.144Z,69.18
2023-02-19T16:36:41.305Z,69.26
2023-02-19T16:39:21.228Z,68.65
2023-02-19T16:42:22.491Z,68.03
2023-02-19T16:44:50.473Z,67.61
2023-02-19T16:47:30.935Z,67.48
2023-02-19T16:50:04.638Z,67.48
2023-02-19T16:52:34.356Z,67.36
2023-02-19T16:55:02.263Z,65.86
2023-02-19T16:57:30.098Z,64.73
2023-02-19T16:59:57.940Z,63.41
2023-02-19T17:02:26.448Z,61.88
2023-02-19T17:04:55.918Z,62.15
2023-02-19T17:07:24.402Z,61.96
2023-02-19T17:09:53.716Z,61.25
2023-02-19T17:12:22.382Z,60.63
2023-02-19T17:14:50.297Z,61.30
2023-02-19T17:17:18.226Z,61.54
2023-02-19T17:19:46.112Z,61.10
2023-02-19T17:22:16.984Z,60.27
2023-02-19T17:24:45.981Z,60.55
2023-02-19T17:27:15.585Z,65.88
2023-02-19T17:29:43.430Z,67.19
2023-02-19T17:32:11.393Z,68.45
2023-02-19T17:34:40.447Z,69.08
2023-02-19T17:37:08.376Z,69.17
2023-02-19T17:39:36.331Z,68.37
2023-02-19T17:42:05.204Z,67.88
2023-02-19T17:44:34.418Z,68.16
2023-02-19T17:47:02.849Z,67.75
2023-02-19T17:49:30.906Z,68.27
2023-02-19T17:51:59.569Z,68.83
2023-02-19T17:54:27.394Z,69.58
2023-02-19T17:56:55.270Z,68.77
2023-02-19T17:59:23.088Z,68.64
2023-02-19T18:01:52.394Z,69.47
2023-02-19T18:04:20.655Z,69.14
2023-02-19T18:06:48.821Z,68.82
2023-02-19T18:09:19.379Z,69.72
2023-02-19T18:11:47.550Z,69.09
2023-02-19T18:14:15.384Z,68.40
2023-02-19T18:16:49.811Z,67.84
2023-02-19T18:19:20.043Z,68.13
2023-02-19T18:21:47.911Z,66.76
2023-02-19T18:24:16.288Z,67.44
2023-02-19T18:26:44.699Z,67.29
2023-02-19T18:29:12.627Z,66.28
2023-02-19T18:31:40.609Z,66.93
2023-02-19T18:34:18.227Z,67.35
2023-02-19T18:36:48.145Z,67.79
2023-02-19T18:39:16.847Z,68.33
2023-02-19T18:41:48.134Z,68.62
2023-02-19T18:44:19.517Z,68.33
2023-02-19T18:46:47.635Z,68.12
2023-02-19T18:49:15.913Z,68.04
2023-02-19T18:51:44.441Z,68.50
2023-02-19T18:54:13.707Z,68.64
2023-02-19T18:56:43.120Z,68.05
2023-02-19T18:59:11.300Z,68.88
2023-02-19T19:01:39.191Z,68.72
2023-02-19T19:04:07.442Z,67.58
2023-02-19T19:06:36.013Z,67.28
2023-02-19T19:09:05.017Z,67.28
2023-02-19T19:11:34.325Z,67.30
2023-02-19T19:14:02.286Z,66.58
2023-02-19T19:16:31.329Z,67.08
2023-02-19T19:18:59.146Z,67.15
2023-02-19T19:21:27.118Z,67.12
2023-02-19T19:23:55.018Z,65.55
2023-02-19T19:26:23.086Z,65.87
2023-02-19T19:28:52.372Z,65.68
2023-02-19T19:31:21.584Z,65.58
2023-02-19T19:33:49.873Z,65.48
2023-02-19T19:36:21.655Z,64.30
2023-02-19T19:38:49.851Z,61.74
2023-02-19T19:41:19.686Z,59.87
2023-02-19T19:43:47.757Z,59.42
2023-02-19T19:46:19.794Z,58.73
2023-02-19T19:48:48.040Z,59.24
2023-02-19T19:51:16.552Z,59.68
2023-02-19T19:53:47.430Z,60.06
2023-02-19T19:56:15.398Z,59.87
2023-02-19T19:58:43.267Z,59.19
2023-02-19T20:01:11.424Z,59.67
2023-02-19T20:03:40.906Z,60.03
2023-02-19T20:06:09.015Z,59.82
2023-02-19T20:08:36.957Z,59.64
2023-02-19T20:11:05.143Z,60.12
2023-02-19T20:13:34.457Z,59.67
2023-02-19T20:16:02.503Z,60.27
2023-02-19T20:18:30.519Z,60.85
2023-02-19T20:20:59.921Z,61.22
2023-02-19T20:23:28.687Z,61.65
2023-02-19T20:25:57.529Z,61.57
2023-02-19T20:28:25.406Z,61.93
2023-02-19T20:30:53.545Z,61.98
2023-02-19T20:33:21.787Z,61.91
2023-02-19T20:35:49.704Z,61.90
2023-02-19T20:38:19.009Z,61.92
2023-02-19T20:40:46.919Z,60.85
2023-02-19T20:43:14.751Z,61.42
2023-02-19T20:45:45.710Z,61.04
2023-02-19T20:48:16.071Z,60.68
2023-02-19T20:50:43.976Z,60.91
2023-02-19T20:53:11.965Z,60.60
2023-02-19T20:55:41.375Z,61.05
2023-02-19T20:58:09.280Z,60.59
2023-02-19T21:00:37.238Z,60.71
2023-02-19T21:03:05.247Z,60.30
2023-02-19T21:05:33.125Z,60.27
2023-02-19T21:08:01.009Z,60.09
2023-02-19T21:10:28.892Z,59.59
2023-02-19T21:12:58.154Z,59.32
2023-02-19T21:15:26.041Z,59.17
2023-02-19T21:17:53.911Z,58.94
2023-02-19T21:20:21.940Z,59.27
2023-02-19T21:22:49.767Z,58.92
2023-02-19T21:25:17.846Z,58.96
2023-02-19T21:27:45.655Z,59.28
2023-02-19T21:30:15.258Z,58.39
2023-02-19T21:32:43.143Z,58.99
2023-02-19T21:35:11.381Z,58.67
2023-02-19T21:37:42.830Z,58.20
2023-02-19T21:40:12.077Z,58.04
2023-02-19T21:42:40.093Z,58.59
2023-02-19T21:45:09.036Z,58.50
2023-02-19T21:47:38.281Z,58.04
2023-02-19T21:50:07.291Z,57.62
2023-02-19T21:52:35.123Z,58.08
2023-02-19T21:55:02.998Z,57.63
2023-02-19T21:57:30.882Z,57.14
2023-02-19T21:59:58.682Z,57.27
2023-02-19T22:02:26.498Z,57.14
2023-02-19T22:04:57.556Z,57.56
2023-02-19T22:07:25.866Z,57.47
2023-02-19T22:09:53.671Z,57.38
2023-02-19T22:12:21.609Z,57.80
2023-02-19T22:14:49.458Z,57.88
2023-02-19T22:17:17.376Z,58.39
2023-02-19T22:19:45.272Z,58.41
2023-02-19T22:22:15.048Z,58.62
2023-02-19T22:24:42.959Z,58.16
2023-02-19T22:27:10.890Z,58.02
2023-02-19T22:29:38.770Z,58.46
2023-02-19T22:32:07.036Z,58.06
2023-02-19T22:34:39.266Z,58.24
2023-02-19T22:37:07.505Z,58.29
2023-02-19T22:39:36.880Z,58.56
2023-02-19T22:42:05.075Z,58.42
2023-02-19T22:44:34.329Z,57.98
2023-02-19T22:47:02.169Z,57.51
2023-02-19T22:49:30.174Z,58.02
2023-02-19T22:52:02.228Z,57.32
2023-02-19T22:54:30.139Z,57.45
2023-02-19T22:56:59.352Z,57.72
2023-02-19T22:59:27.155Z,57.86
2023-02-19T23:01:55.631Z,58.16
2023-02-19T23:04:25.878Z,57.93
2023-02-19T23:06:53.869Z,57.90
2023-02-19T23:09:23.787Z,58.38
2023-02-19T23:11:52.249Z,58.22
2023-02-19T23:14:22.578Z,58.62
2023-02-19T23:16:50.456Z,58.61
2023-02-19T23:19:18.312Z,58.68
2023-02-19T23:21:46.570Z,58.63
2023-02-19T23:24:15.469Z,58.69
2023-02-19T23:26:44.523Z,58.93
2023-02-19T23:29:15.206Z,58.60
2023-02-19T23:31:44.560Z,58.67
2023-02-19T23:34:13.064Z,58.61
2023-02-19T23:36:41.847Z,58.64
2023-02-19T23:39:11.291Z,59.00
2023-02-19T23:41:39.269Z,58.97
2023-02-19T23:44:07.247Z,58.80
2023-02-19T23:46:35.162Z,58.83
2023-02-19T23:49:04.336Z,58.89
2023-02-19T23:51:32.192Z,59.24
2023-02-19T23:54:00.124Z,59.00
2023-02-19T23:56:30.082Z,59.03
2023-02-19T23:58:58.342Z,59.35
